sensor_id;sensor_type;location;lat;lon;timestamp;noise_LAeq;noise_LA_min;noise_LA_max;noise_LA01;noise_LA95
58303;Laerm;44109;52.398;7.024;2024-02-21T00:00:36;46.32;32.85;57.05;;
58303;Laerm;44109;52.398;7.024;2024-02-21T00:03:04;46.05;33.12;57.01;;
58303;Laerm;44109;52.398;7.024;2024-02-21T00:05:32;45.88;31.84;56.74;;
58303;Laerm;44109;52.398;7.024;2024-02-21T00:07:59;46.43;33.98;57.12;;
58303;Laerm;44109;52.398;7.024;2024-02-21T00:10:27;45.92;31.93;56.97;;
58303;Laerm;44109;52.398;7.024;2024-02-21T00:12:56;46.16;33.34;56.49;;
58303;Laerm;44109;52.398;7.024;2024-02-21T00:15:25;46.50;32.83;57.09;;
58303;Laerm;44109;52.398;7.024;2024-02-21T00:17:53;46.13;32.55;56.50;;
58303;Laerm;44109;52.398;7.024;2024-02-21T00:20:21;46.11;32.15;56.93;;
58303;Laerm;44109;52.398;7.024;2024-02-21T00:22:48;46.39;32.13;57.35;;
58303;Laerm;44109;52.398;7.024;2024-02-21T00:25:16;45.96;32.20;56.91;;
58303;Laerm;44109;52.398;7.024;2024-02-21T00:27:44;46.53;32.89;56.80;;
58303;Laerm;44109;52.398;7.024;2024-02-21T00:30:13;46.51;33.13;57.14;;
58303;Laerm;44109;52.398;7.024;2024-02-21T00:32:41;46.04;32.75;56.82;;
58303;Laerm;44109;52.398;7.024;2024-02-21T00:35:09;46.28;33.02;56.89;;
58303;Laerm;44109;52.398;7.024;2024-02-21T00:37:36;46.31;32.85;57.13;;
58303;Laerm;44109;52.398;7.024;2024-02-21T00:40:06;46.58;33.82;62.59;;
58303;Laerm;44109;52.398;7.024;2024-02-21T00:42:33;47.28;34.84;59.48;;
58303;Laerm;44109;52.398;7.024;2024-02-21T00:45:01;46.18;32.86;57.23;;
58303;Laerm;44109;52.398;7.024;2024-02-21T00:47:30;46.58;33.33;56.77;;
58303;Laerm;44109;52.398;7.024;2024-02-21T00:49:57;46.57;33.13;57.06;;
58303;Laerm;44109;52.398;7.024;2024-02-21T00:52:25;45.97;32.27;57.16;;
58303;Laerm;44109;52.398;7.024;2024-02-21T00:54:52;46.10;32.76;56.78;;
58303;Laerm;44109;52.398;7.024;2024-02-21T00:57:20;45.92;32.54;57.12;;
58303;Laerm;44109;52.398;7.024;2024-02-21T00:59:48;46.14;33.15;58.55;;
58303;Laerm;44109;52.398;7.024;2024-02-21T01:02:16;47.77;35.30;57.23;;
58303;Laerm;44109;52.398;7.024;2024-02-21T01:04:45;46.25;33.29;56.98;;
58303;Laerm;44109;52.398;7.024;2024-02-21T01:07:12;46.63;32.39;57.48;;
58303;Laerm;44109;52.398;7.024;2024-02-21T01:09:41;45.93;32.49;57.05;;
58303;Laerm;44109;52.398;7.024;2024-02-21T01:12:08;46.64;31.63;56.73;;
58303;Laerm;44109;52.398;7.024;2024-02-21T01:14:36;46.64;32.79;57.00;;
58303;Laerm;44109;52.398;7.024;2024-02-21T01:17:04;45.98;31.85;56.98;;
58303;Laerm;44109;52.398;7.024;2024-02-21T01:19:32;45.99;33.25;57.08;;
58303;Laerm;44109;52.398;7.024;2024-02-21T01:22:01;46.08;32.72;56.83;;
58303;Laerm;44109;52.398;7.024;2024-02-21T01:24:29;46.26;32.76;61.53;;
58303;Laerm;44109;52.398;7.024;2024-02-21T01:26:57;46.29;33.25;56.90;;
58303;Laerm;44109;52.398;7.024;2024-02-21T01:29:24;46.01;32.50;56.72;;
58303;Laerm;44109;52.398;7.024;2024-02-21T01:31:52;46.11;32.88;56.92;;
58303;Laerm;44109;52.398;7.024;2024-02-21T01:34:19;46.88;34.12;56.76;;
58303;Laerm;44109;52.398;7.024;2024-02-21T01:36:47;46.45;32.41;56.87;;
58303;Laerm;44109;52.398;7.024;2024-02-21T01:39:16;46.02;32.98;56.92;;
58303;Laerm;44109;52.398;7.024;2024-02-21T01:41:43;46.43;33.97;56.99;;
58303;Laerm;44109;52.398;7.024;2024-02-21T01:44:11;45.91;32.60;56.88;;
58303;Laerm;44109;52.398;7.024;2024-02-21T01:46:39;46.22;33.30;56.84;;
58303;Laerm;44109;52.398;7.024;2024-02-21T01:49:07;46.34;33.83;56.75;;
58303;Laerm;44109;52.398;7.024;2024-02-21T01:51:36;46.33;34.31;56.85;;
58303;Laerm;44109;52.398;7.024;2024-02-21T01:54:07;46.16;33.52;56.50;;
58303;Laerm;44109;52.398;7.024;2024-02-21T01:56:36;46.22;33.16;57.38;;
58303;Laerm;44109;52.398;7.024;2024-02-21T01:59:04;46.06;32.58;56.87;;
58303;Laerm;44109;52.398;7.024;2024-02-21T02:01:33;46.58;32.60;58.13;;
58303;Laerm;44109;52.398;7.024;2024-02-21T02:04:01;46.26;32.84;59.31;;
58303;Laerm;44109;52.398;7.024;2024-02-21T02:06:30;46.68;35.41;57.00;;
58303;Laerm;44109;52.398;7.024;2024-02-21T02:08:58;47.16;34.94;57.08;;
58303;Laerm;44109;52.398;7.024;2024-02-21T02:11:26;46.34;33.91;57.35;;
58303;Laerm;44109;52.398;7.024;2024-02-21T02:13:56;46.45;33.74;57.06;;
58303;Laerm;44109;52.398;7.024;2024-02-21T02:16:24;47.26;34.13;61.45;;
58303;Laerm;44109;52.398;7.024;2024-02-21T02:18:52;46.66;33.88;60.92;;
58303;Laerm;44109;52.398;7.024;2024-02-21T02:21:29;47.13;34.82;57.20;;
58303;Laerm;44109;52.398;7.024;2024-02-21T02:23:59;45.86;32.62;56.85;;
58303;Laerm;44109;52.398;7.024;2024-02-21T02:26:26;47.09;34.36;57.07;;
58303;Laerm;44109;52.398;7.024;2024-02-21T02:28:54;47.10;32.48;57.20;;
58303;Laerm;44109;52.398;7.024;2024-02-21T02:31:22;47.62;35.26;63.62;;
58303;Laerm;44109;52.398;7.024;2024-02-21T02:33:49;47.55;33.95;68.75;;
58303;Laerm;44109;52.398;7.024;2024-02-21T02:36:18;47.08;35.38;56.50;;
58303;Laerm;44109;52.398;7.024;2024-02-21T02:38:46;46.84;35.03;56.85;;
58303;Laerm;44109;52.398;7.024;2024-02-21T02:41:14;47.19;34.49;60.11;;
58303;Laerm;44109;52.398;7.024;2024-02-21T02:43:42;46.55;34.75;56.91;;
58303;Laerm;44109;52.398;7.024;2024-02-21T02:46:10;47.83;34.28;63.65;;
58303;Laerm;44109;52.398;7.024;2024-02-21T02:48:37;46.93;34.39;57.04;;
58303;Laerm;44109;52.398;7.024;2024-02-21T02:51:05;47.10;36.13;57.03;;
58303;Laerm;44109;52.398;7.024;2024-02-21T02:53:33;46.72;32.84;56.89;;
58303;Laerm;44109;52.398;7.024;2024-02-21T02:56:00;46.74;34.01;57.14;;
58303;Laerm;44109;52.398;7.024;2024-02-21T02:58:29;47.04;33.82;56.81;;
58303;Laerm;44109;52.398;7.024;2024-02-21T03:00:57;46.98;33.99;57.20;;
58303;Laerm;44109;52.398;7.024;2024-02-21T03:03:24;46.03;32.66;56.91;;
58303;Laerm;44109;52.398;7.024;2024-02-21T03:05:52;47.52;32.17;58.81;;
58303;Laerm;44109;52.398;7.024;2024-02-21T03:08:20;46.22;31.73;57.04;;
58303;Laerm;44109;52.398;7.024;2024-02-21T03:10:49;46.17;32.02;57.05;;
58303;Laerm;44109;52.398;7.024;2024-02-21T03:13:16;46.76;34.63;64.77;;
58303;Laerm;44109;52.398;7.024;2024-02-21T03:15:45;46.38;31.73;57.08;;
58303;Laerm;44109;52.398;7.024;2024-02-21T03:18:13;46.89;33.33;56.60;;
58303;Laerm;44109;52.398;7.024;2024-02-21T03:20:40;46.28;32.03;58.18;;
58303;Laerm;44109;52.398;7.024;2024-02-21T03:23:08;46.49;33.71;57.57;;
58303;Laerm;44109;52.398;7.024;2024-02-21T03:25:36;46.32;32.89;59.54;;
58303;Laerm;44109;52.398;7.024;2024-02-21T03:28:04;46.13;33.38;56.68;;
58303;Laerm;44109;52.398;7.024;2024-02-21T03:30:31;46.59;33.65;60.85;;
58303;Laerm;44109;52.398;7.024;2024-02-21T03:33:02;45.87;31.96;56.60;;
58303;Laerm;44109;52.398;7.024;2024-02-21T03:35:30;46.17;32.51;56.75;;
58303;Laerm;44109;52.398;7.024;2024-02-21T03:37:58;46.33;33.12;57.00;;
58303;Laerm;44109;52.398;7.024;2024-02-21T03:40:27;47.24;36.25;61.19;;
58303;Laerm;44109;52.398;7.024;2024-02-21T03:42:55;46.43;33.19;57.81;;
58303;Laerm;44109;52.398;7.024;2024-02-21T03:45:23;46.57;32.08;59.26;;
58303;Laerm;44109;52.398;7.024;2024-02-21T03:47:51;46.90;32.65;60.36;;
58303;Laerm;44109;52.398;7.024;2024-02-21T03:50:20;47.02;33.37;57.73;;
58303;Laerm;44109;52.398;7.024;2024-02-21T03:52:47;46.37;33.54;59.30;;
58303;Laerm;44109;52.398;7.024;2024-02-21T03:55:15;47.03;34.55;73.19;;
58303;Laerm;44109;52.398;7.024;2024-02-21T03:57:42;47.35;33.32;67.86;;
58303;Laerm;44109;52.398;7.024;2024-02-21T04:00:11;46.58;33.03;57.83;;
58303;Laerm;44109;52.398;7.024;2024-02-21T04:02:42;46.70;32.84;74.37;;
58303;Laerm;44109;52.398;7.024;2024-02-21T04:05:09;46.17;33.56;59.52;;
58303;Laerm;44109;52.398;7.024;2024-02-21T04:07:40;46.04;32.22;57.02;;
58303;Laerm;44109;52.398;7.024;2024-02-21T04:10:08;45.91;32.00;56.55;;
58303;Laerm;44109;52.398;7.024;2024-02-21T04:12:36;46.74;32.46;57.12;;
58303;Laerm;44109;52.398;7.024;2024-02-21T04:15:06;46.23;32.87;57.19;;
58303;Laerm;44109;52.398;7.024;2024-02-21T04:17:34;45.91;32.22;57.02;;
58303;Laerm;44109;52.398;7.024;2024-02-21T04:20:05;49.10;32.42;81.79;;
58303;Laerm;44109;52.398;7.024;2024-02-21T04:22:34;46.12;33.42;56.91;;
58303;Laerm;44109;52.398;7.024;2024-02-21T04:25:03;46.41;32.36;57.77;;
58303;Laerm;44109;52.398;7.024;2024-02-21T04:27:31;46.38;33.71;57.16;;
58303;Laerm;44109;52.398;7.024;2024-02-21T04:30:00;45.95;32.70;56.91;;
58303;Laerm;44109;52.398;7.024;2024-02-21T04:32:27;46.16;32.87;57.08;;
58303;Laerm;44109;52.398;7.024;2024-02-21T04:34:55;46.12;32.79;56.73;;
58303;Laerm;44109;52.398;7.024;2024-02-21T04:37:22;47.09;34.20;58.56;;
58303;Laerm;44109;52.398;7.024;2024-02-21T04:39:50;46.99;33.40;56.45;;
58303;Laerm;44109;52.398;7.024;2024-02-21T04:42:19;46.73;34.68;56.84;;
58303;Laerm;44109;52.398;7.024;2024-02-21T04:44:47;46.97;34.26;56.94;;
58303;Laerm;44109;52.398;7.024;2024-02-21T04:47:15;46.55;34.14;57.26;;
58303;Laerm;44109;52.398;7.024;2024-02-21T04:49:42;46.92;35.28;57.05;;
58303;Laerm;44109;52.398;7.024;2024-02-21T04:52:10;47.24;34.56;56.60;;
58303;Laerm;44109;52.398;7.024;2024-02-21T04:54:37;48.56;37.35;64.34;;
58303;Laerm;44109;52.398;7.024;2024-02-21T04:57:05;45.94;32.17;57.04;;
58303;Laerm;44109;52.398;7.024;2024-02-21T04:59:34;47.18;32.03;58.45;;
58303;Laerm;44109;52.398;7.024;2024-02-21T05:02:02;46.43;32.78;57.71;;
58303;Laerm;44109;52.398;7.024;2024-02-21T05:04:30;46.51;33.73;56.74;;
58303;Laerm;44109;52.398;7.024;2024-02-21T05:06:59;46.90;34.08;59.22;;
58303;Laerm;44109;52.398;7.024;2024-02-21T05:09:27;46.37;34.60;57.14;;
58303;Laerm;44109;52.398;7.024;2024-02-21T05:11:55;46.54;32.65;57.20;;
58303;Laerm;44109;52.398;7.024;2024-02-21T05:14:22;46.93;36.14;57.07;;
58303;Laerm;44109;52.398;7.024;2024-02-21T05:16:51;46.95;36.37;57.23;;
58303;Laerm;44109;52.398;7.024;2024-02-21T05:19:19;46.96;34.83;57.04;;
58303;Laerm;44109;52.398;7.024;2024-02-21T05:21:46;46.61;34.34;57.06;;
58303;Laerm;44109;52.398;7.024;2024-02-21T05:24:14;46.81;35.80;57.12;;
58303;Laerm;44109;52.398;7.024;2024-02-21T05:26:42;47.45;35.56;57.58;;
58303;Laerm;44109;52.398;7.024;2024-02-21T05:29:10;47.74;36.77;57.34;;
58303;Laerm;44109;52.398;7.024;2024-02-21T05:31:57;46.37;32.93;57.34;;
58303;Laerm;44109;52.398;7.024;2024-02-21T05:34:25;47.19;34.31;57.36;;
58303;Laerm;44109;52.398;7.024;2024-02-21T05:36:52;47.46;34.20;57.03;;
58303;Laerm;44109;52.398;7.024;2024-02-21T05:39:20;48.93;34.87;58.16;;
58303;Laerm;44109;52.398;7.024;2024-02-21T05:41:49;47.09;36.04;56.94;;
58303;Laerm;44109;52.398;7.024;2024-02-21T05:44:17;47.75;35.94;57.29;;
58303;Laerm;44109;52.398;7.024;2024-02-21T05:46:46;47.08;34.35;57.10;;
58303;Laerm;44109;52.398;7.024;2024-02-21T05:49:15;47.60;36.88;57.21;;
58303;Laerm;44109;52.398;7.024;2024-02-21T05:51:42;48.15;39.41;57.00;;
58303;Laerm;44109;52.398;7.024;2024-02-21T05:54:10;48.18;37.79;61.48;;
58303;Laerm;44109;52.398;7.024;2024-02-21T05:56:37;50.03;36.45;67.46;;
58303;Laerm;44109;52.398;7.024;2024-02-21T05:59:06;49.28;38.33;60.23;;
58303;Laerm;44109;52.398;7.024;2024-02-21T06:01:33;49.77;37.85;63.92;;
58303;Laerm;44109;52.398;7.024;2024-02-21T06:04:02;49.84;38.60;60.79;;
58303;Laerm;44109;52.398;7.024;2024-02-21T06:06:32;52.33;36.17;67.96;;
58303;Laerm;44109;52.398;7.024;2024-02-21T06:08:59;55.90;39.47;69.17;;
58303;Laerm;44109;52.398;7.024;2024-02-21T06:11:29;56.18;38.35;71.11;;
58303;Laerm;44109;52.398;7.024;2024-02-21T06:13:56;57.09;39.87;73.16;;
58303;Laerm;44109;52.398;7.024;2024-02-21T06:16:24;56.72;37.95;73.02;;
58303;Laerm;44109;52.398;7.024;2024-02-21T06:18:51;57.91;37.89;74.02;;
58303;Laerm;44109;52.398;7.024;2024-02-21T06:21:19;54.25;40.92;75.06;;
58303;Laerm;44109;52.398;7.024;2024-02-21T06:23:48;49.67;37.77;66.74;;
58303;Laerm;44109;52.398;7.024;2024-02-21T06:26:15;52.75;37.91;72.62;;
58303;Laerm;44109;52.398;7.024;2024-02-21T06:28:43;51.97;36.61;66.94;;
58303;Laerm;44109;52.398;7.024;2024-02-21T06:31:13;51.30;36.18;65.66;;
58303;Laerm;44109;52.398;7.024;2024-02-21T06:33:42;52.37;37.99;65.99;;
58303;Laerm;44109;52.398;7.024;2024-02-21T06:36:10;53.18;37.11;69.50;;
58303;Laerm;44109;52.398;7.024;2024-02-21T06:38:37;52.39;37.18;70.69;;
58303;Laerm;44109;52.398;7.024;2024-02-21T06:41:14;54.30;39.91;68.07;;
58303;Laerm;44109;52.398;7.024;2024-02-21T06:43:42;51.87;38.67;69.33;;
58303;Laerm;44109;52.398;7.024;2024-02-21T06:46:10;50.79;38.17;64.62;;
58303;Laerm;44109;52.398;7.024;2024-02-21T06:48:38;49.70;38.49;70.78;;
58303;Laerm;44109;52.398;7.024;2024-02-21T06:51:05;48.79;37.56;66.32;;
58303;Laerm;44109;52.398;7.024;2024-02-21T06:53:33;49.64;39.37;65.53;;
58303;Laerm;44109;52.398;7.024;2024-02-21T06:56:00;50.76;38.84;65.92;;
58303;Laerm;44109;52.398;7.024;2024-02-21T06:58:33;50.09;39.84;69.64;;
58303;Laerm;44109;52.398;7.024;2024-02-21T07:01:00;49.78;37.57;66.22;;
58303;Laerm;44109;52.398;7.024;2024-02-21T07:03:28;50.34;36.39;65.88;;
58303;Laerm;44109;52.398;7.024;2024-02-21T07:05:55;48.38;37.28;67.17;;
58303;Laerm;44109;52.398;7.024;2024-02-21T07:08:23;51.08;40.70;64.99;;
58303;Laerm;44109;52.398;7.024;2024-02-21T07:10:50;52.31;42.28;66.80;;
58303;Laerm;44109;52.398;7.024;2024-02-21T07:13:18;54.15;39.67;68.93;;
58303;Laerm;44109;52.398;7.024;2024-02-21T07:15:48;52.15;40.89;66.07;;
58303;Laerm;44109;52.398;7.024;2024-02-21T07:18:16;49.69;39.69;66.66;;
58303;Laerm;44109;52.398;7.024;2024-02-21T07:20:43;52.13;37.42;66.97;;
58303;Laerm;44109;52.398;7.024;2024-02-21T07:23:11;51.42;37.31;67.55;;
58303;Laerm;44109;52.398;7.024;2024-02-21T07:25:39;50.56;40.59;67.06;;
58303;Laerm;44109;52.398;7.024;2024-02-21T07:28:06;50.31;39.94;63.30;;
58303;Laerm;44109;52.398;7.024;2024-02-21T07:30:35;51.58;38.69;66.89;;
58303;Laerm;44109;52.398;7.024;2024-02-21T07:33:04;52.35;37.72;67.64;;
58303;Laerm;44109;52.398;7.024;2024-02-21T07:35:34;53.14;40.95;69.81;;
58303;Laerm;44109;52.398;7.024;2024-02-21T07:38:06;52.25;39.20;67.11;;
58303;Laerm;44109;52.398;7.024;2024-02-21T07:40:38;53.21;41.57;69.88;;
58303;Laerm;44109;52.398;7.024;2024-02-21T07:43:06;52.97;40.50;68.60;;
58303;Laerm;44109;52.398;7.024;2024-02-21T07:45:34;53.43;39.27;67.46;;
58303;Laerm;44109;52.398;7.024;2024-02-21T07:48:01;53.14;40.39;66.33;;
58303;Laerm;44109;52.398;7.024;2024-02-21T07:50:31;50.79;39.12;69.61;;
58303;Laerm;44109;52.398;7.024;2024-02-21T07:52:58;49.54;38.02;64.39;;
58303;Laerm;44109;52.398;7.024;2024-02-21T07:55:26;48.89;39.03;57.57;;
58303;Laerm;44109;52.398;7.024;2024-02-21T07:57:54;49.43;38.73;61.22;;
58303;Laerm;44109;52.398;7.024;2024-02-21T08:00:22;53.30;39.82;66.65;;
58303;Laerm;44109;52.398;7.024;2024-02-21T08:02:49;54.73;39.07;68.46;;
58303;Laerm;44109;52.398;7.024;2024-02-21T08:05:17;52.72;44.46;69.96;;
58303;Laerm;44109;52.398;7.024;2024-02-21T08:07:46;50.22;39.32;64.21;;
58303;Laerm;44109;52.398;7.024;2024-02-21T08:10:16;52.84;39.09;73.82;;
58303;Laerm;44109;52.398;7.024;2024-02-21T08:12:43;51.81;39.64;68.21;;
58303;Laerm;44109;52.398;7.024;2024-02-21T08:15:11;50.97;39.87;65.34;;
58303;Laerm;44109;52.398;7.024;2024-02-21T08:17:39;50.49;40.34;69.71;;
58303;Laerm;44109;52.398;7.024;2024-02-21T08:20:09;49.52;38.73;64.18;;
58303;Laerm;44109;52.398;7.024;2024-02-21T08:22:37;49.13;38.28;68.20;;
58303;Laerm;44109;52.398;7.024;2024-02-21T08:25:07;50.15;39.46;65.53;;
58303;Laerm;44109;52.398;7.024;2024-02-21T08:27:34;50.32;38.54;76.30;;
58303;Laerm;44109;52.398;7.024;2024-02-21T08:30:02;56.89;37.06;78.79;;
58303;Laerm;44109;52.398;7.024;2024-02-21T08:32:30;53.58;39.92;74.43;;
58303;Laerm;44109;52.398;7.024;2024-02-21T08:34:57;53.19;37.48;73.42;;
58303;Laerm;44109;52.398;7.024;2024-02-21T08:37:27;52.52;40.60;74.32;;
58303;Laerm;44109;52.398;7.024;2024-02-21T08:39:54;52.58;38.96;75.71;;
58303;Laerm;44109;52.398;7.024;2024-02-21T08:42:23;51.72;39.39;66.91;;
58303;Laerm;44109;52.398;7.024;2024-02-21T08:44:51;53.60;40.26;72.31;;
58303;Laerm;44109;52.398;7.024;2024-02-21T08:47:18;52.69;40.70;69.60;;
58303;Laerm;44109;52.398;7.024;2024-02-21T08:49:46;52.46;39.57;77.03;;
58303;Laerm;44109;52.398;7.024;2024-02-21T08:52:14;52.15;41.19;71.72;;
58303;Laerm;44109;52.398;7.024;2024-02-21T08:54:42;53.09;41.48;71.97;;
58303;Laerm;44109;52.398;7.024;2024-02-21T08:57:09;49.50;40.40;67.33;;
58303;Laerm;44109;52.398;7.024;2024-02-21T08:59:39;48.32;38.66;69.79;;
58303;Laerm;44109;52.398;7.024;2024-02-21T09:02:06;48.94;38.06;62.42;;
58303;Laerm;44109;52.398;7.024;2024-02-21T09:04:35;51.24;42.57;66.47;;
58303;Laerm;44109;52.398;7.024;2024-02-21T09:07:03;49.44;39.68;69.84;;
58303;Laerm;44109;52.398;7.024;2024-02-21T09:09:30;49.80;40.11;65.81;;
58303;Laerm;44109;52.398;7.024;2024-02-21T09:11:59;52.02;40.11;68.78;;
58303;Laerm;44109;52.398;7.024;2024-02-21T09:14:32;49.99;40.15;66.07;;
58303;Laerm;44109;52.398;7.024;2024-02-21T09:17:01;50.00;39.28;70.24;;
58303;Laerm;44109;52.398;7.024;2024-02-21T09:19:30;49.89;38.35;61.75;;
58303;Laerm;44109;52.398;7.024;2024-02-21T09:21:57;49.97;41.12;69.25;;
58303;Laerm;44109;52.398;7.024;2024-02-21T09:24:25;49.22;39.76;63.12;;
58303;Laerm;44109;52.398;7.024;2024-02-21T09:26:53;48.85;38.47;57.71;;
58303;Laerm;44109;52.398;7.024;2024-02-21T09:29:20;49.98;36.79;65.47;;
58303;Laerm;44109;52.398;7.024;2024-02-21T09:31:48;51.23;40.91;67.84;;
58303;Laerm;44109;52.398;7.024;2024-02-21T09:34:17;52.61;38.60;71.60;;
58303;Laerm;44109;52.398;7.024;2024-02-21T09:36:44;50.39;41.64;67.73;;
58303;Laerm;44109;52.398;7.024;2024-02-21T09:39:12;49.06;39.33;67.50;;
58303;Laerm;44109;52.398;7.024;2024-02-21T09:41:50;49.68;39.00;57.83;;
58303;Laerm;44109;52.398;7.024;2024-02-21T09:44:21;51.20;39.73;68.62;;
58303;Laerm;44109;52.398;7.024;2024-02-21T09:46:57;51.12;41.14;61.17;;
58303;Laerm;44109;52.398;7.024;2024-02-21T09:49:32;51.78;40.92;70.34;;
58303;Laerm;44109;52.398;7.024;2024-02-21T09:52:02;51.92;42.28;69.81;;
58303;Laerm;44109;52.398;7.024;2024-02-21T09:54:33;51.31;44.53;67.65;;
58303;Laerm;44109;52.398;7.024;2024-02-21T09:57:01;51.70;42.12;69.41;;
58303;Laerm;44109;52.398;7.024;2024-02-21T09:59:32;52.38;42.84;70.89;;
58303;Laerm;44109;52.398;7.024;2024-02-21T10:02:00;51.06;41.82;64.33;;
58303;Laerm;44109;52.398;7.024;2024-02-21T10:04:28;52.75;39.30;71.69;;
58303;Laerm;44109;52.398;7.024;2024-02-21T10:06:57;52.03;41.49;70.84;;
58303;Laerm;44109;52.398;7.024;2024-02-21T10:09:27;54.03;42.09;76.13;;
58303;Laerm;44109;52.398;7.024;2024-02-21T10:11:56;53.62;40.04;73.64;;
58303;Laerm;44109;52.398;7.024;2024-02-21T10:14:24;51.31;39.03;71.73;;
58303;Laerm;44109;52.398;7.024;2024-02-21T10:16:57;51.69;40.67;72.44;;
58303;Laerm;44109;52.398;7.024;2024-02-21T10:19:25;51.62;41.38;71.63;;
58303;Laerm;44109;52.398;7.024;2024-02-21T10:22:02;53.55;41.98;68.40;;
58303;Laerm;44109;52.398;7.024;2024-02-21T10:24:31;52.49;40.65;73.65;;
58303;Laerm;44109;52.398;7.024;2024-02-21T10:27:04;59.51;42.59;78.42;;
58303;Laerm;44109;52.398;7.024;2024-02-21T10:29:34;59.18;41.34;77.22;;
58303;Laerm;44109;52.398;7.024;2024-02-21T10:32:07;54.34;43.17;71.50;;
58303;Laerm;44109;52.398;7.024;2024-02-21T10:34:36;52.26;42.66;70.52;;
58303;Laerm;44109;52.398;7.024;2024-02-21T10:37:06;53.42;38.93;67.87;;
58303;Laerm;44109;52.398;7.024;2024-02-21T10:39:38;52.28;41.45;74.13;;
58303;Laerm;44109;52.398;7.024;2024-02-21T10:42:07;53.31;41.14;71.02;;
58303;Laerm;44109;52.398;7.024;2024-02-21T10:44:41;51.33;41.73;68.50;;
58303;Laerm;44109;52.398;7.024;2024-02-21T10:47:11;51.16;42.44;63.05;;
58303;Laerm;44109;52.398;7.024;2024-02-21T10:49:41;51.82;41.86;65.33;;
58303;Laerm;44109;52.398;7.024;2024-02-21T10:52:15;71.19;43.54;86.45;;
58303;Laerm;44109;52.398;7.024;2024-02-21T10:54:48;72.47;40.79;85.50;;
58303;Laerm;44109;52.398;7.024;2024-02-21T10:57:21;53.31;41.36;76.72;;
58303;Laerm;44109;52.398;7.024;2024-02-21T10:59:51;50.09;41.21;61.04;;
58303;Laerm;44109;52.398;7.024;2024-02-21T11:02:19;50.36;40.93;65.11;;
58303;Laerm;44109;52.398;7.024;2024-02-21T11:04:48;49.85;40.64;69.72;;
58303;Laerm;44109;52.398;7.024;2024-02-21T11:07:20;50.45;40.78;61.20;;
58303;Laerm;44109;52.398;7.024;2024-02-21T11:09:51;51.56;42.36;65.40;;
58303;Laerm;44109;52.398;7.024;2024-02-21T11:12:22;50.24;41.10;60.59;;
58303;Laerm;44109;52.398;7.024;2024-02-21T11:14:50;50.96;41.46;59.92;;
58303;Laerm;44109;52.398;7.024;2024-02-21T11:17:20;51.00;42.88;59.05;;
58303;Laerm;44109;52.398;7.024;2024-02-21T11:19:50;50.29;40.74;64.30;;
58303;Laerm;44109;52.398;7.024;2024-02-21T11:22:20;52.26;44.69;67.18;;
58303;Laerm;44109;52.398;7.024;2024-02-21T11:24:49;50.88;41.91;59.09;;
58303;Laerm;44109;52.398;7.024;2024-02-21T11:27:20;50.51;37.79;59.26;;
58303;Laerm;44109;52.398;7.024;2024-02-21T11:29:55;52.22;43.38;68.83;;
58303;Laerm;44109;52.398;7.024;2024-02-21T11:32:26;50.99;43.22;61.84;;
58303;Laerm;44109;52.398;7.024;2024-02-21T11:34:55;52.40;38.57;80.64;;
58303;Laerm;44109;52.398;7.024;2024-02-21T11:37:26;49.88;38.04;57.92;;
58303;Laerm;44109;52.398;7.024;2024-02-21T11:39:54;51.64;42.44;76.15;;
58303;Laerm;44109;52.398;7.024;2024-02-21T11:42:22;51.32;40.15;60.68;;
58303;Laerm;44109;52.398;7.024;2024-02-21T11:44:52;51.49;43.38;62.66;;
58303;Laerm;44109;52.398;7.024;2024-02-21T11:47:24;56.93;42.57;81.38;;
58303;Laerm;44109;52.398;7.024;2024-02-21T11:49:53;50.14;40.78;60.40;;
58303;Laerm;44109;52.398;7.024;2024-02-21T11:52:22;52.48;42.46;71.69;;
58303;Laerm;44109;52.398;7.024;2024-02-21T11:54:52;52.14;44.00;71.53;;
58303;Laerm;44109;52.398;7.024;2024-02-21T11:57:20;53.53;41.47;70.07;;
58303;Laerm;44109;52.398;7.024;2024-02-21T11:59:48;52.71;45.69;65.82;;
58303;Laerm;44109;52.398;7.024;2024-02-21T12:02:19;53.32;44.84;64.63;;
58303;Laerm;44109;52.398;7.024;2024-02-21T12:04:49;53.53;45.78;73.62;;
58303;Laerm;44109;52.398;7.024;2024-02-21T12:07:19;50.92;41.49;67.77;;
58303;Laerm;44109;52.398;7.024;2024-02-21T12:09:48;50.76;44.49;62.03;;
58303;Laerm;44109;52.398;7.024;2024-02-21T12:12:21;50.85;42.84;71.13;;
58303;Laerm;44109;52.398;7.024;2024-02-21T12:14:58;50.98;42.30;67.23;;
58303;Laerm;44109;52.398;7.024;2024-02-21T12:17:33;51.97;42.47;69.86;;
58303;Laerm;44109;52.398;7.024;2024-02-21T12:20:03;51.88;44.37;61.81;;
58303;Laerm;44109;52.398;7.024;2024-02-21T12:22:36;51.18;44.05;60.00;;
58303;Laerm;44109;52.398;7.024;2024-02-21T12:25:17;51.20;43.12;63.05;;
58303;Laerm;44109;52.398;7.024;2024-02-21T12:27:49;57.08;45.55;76.44;;
58303;Laerm;44109;52.398;7.024;2024-02-21T12:30:19;51.05;42.30;67.16;;
58303;Laerm;44109;52.398;7.024;2024-02-21T12:32:48;52.86;43.76;72.47;;
58303;Laerm;44109;52.398;7.024;2024-02-21T12:35:17;54.39;42.70;75.50;;
58303;Laerm;44109;52.398;7.024;2024-02-21T12:37:46;54.05;45.25;71.05;;
58303;Laerm;44109;52.398;7.024;2024-02-21T12:40:16;50.78;41.31;65.07;;
58303;Laerm;44109;52.398;7.024;2024-02-21T12:42:44;50.22;43.39;61.56;;
58303;Laerm;44109;52.398;7.024;2024-02-21T12:45:15;50.31;40.40;69.32;;
58303;Laerm;44109;52.398;7.024;2024-02-21T12:47:44;53.38;44.58;68.05;;
58303;Laerm;44109;52.398;7.024;2024-02-21T12:50:13;51.96;42.27;73.31;;
58303;Laerm;44109;52.398;7.024;2024-02-21T12:52:43;51.60;39.63;76.48;;
58303;Laerm;44109;52.398;7.024;2024-02-21T12:55:14;49.29;40.38;64.33;;
58303;Laerm;44109;52.398;7.024;2024-02-21T12:57:44;51.49;41.75;59.39;;
58303;Laerm;44109;52.398;7.024;2024-02-21T13:00:16;50.96;42.14;71.03;;
58303;Laerm;44109;52.398;7.024;2024-02-21T13:02:44;49.89;41.57;60.24;;
58303;Laerm;44109;52.398;7.024;2024-02-21T13:05:13;50.69;41.97;70.09;;
58303;Laerm;44109;52.398;7.024;2024-02-21T13:07:42;50.58;40.96;65.75;;
58303;Laerm;44109;52.398;7.024;2024-02-21T13:10:12;54.93;43.19;71.15;;
58303;Laerm;44109;52.398;7.024;2024-02-21T13:12:42;54.48;42.03;69.77;;
58303;Laerm;44109;52.398;7.024;2024-02-21T13:15:12;54.73;43.42;73.21;;
58303;Laerm;44109;52.398;7.024;2024-02-21T13:17:45;54.19;43.55;72.09;;
58303;Laerm;44109;52.398;7.024;2024-02-21T13:20:17;50.50;41.95;69.94;;
58303;Laerm;44109;52.398;7.024;2024-02-21T13:22:47;52.02;42.93;70.59;;
58303;Laerm;44109;52.398;7.024;2024-02-21T13:25:16;49.99;41.49;63.69;;
58303;Laerm;44109;52.398;7.024;2024-02-21T13:27:47;51.34;42.21;61.18;;
58303;Laerm;44109;52.398;7.024;2024-02-21T13:30:16;53.29;40.42;78.41;;
58303;Laerm;44109;52.398;7.024;2024-02-21T13:32:45;55.32;43.65;78.23;;
58303;Laerm;44109;52.398;7.024;2024-02-21T13:35:15;51.40;41.98;71.53;;
58303;Laerm;44109;52.398;7.024;2024-02-21T13:37:47;52.12;42.94;69.31;;
58303;Laerm;44109;52.398;7.024;2024-02-21T13:40:16;51.87;40.35;66.29;;
58303;Laerm;44109;52.398;7.024;2024-02-21T13:42:45;51.58;40.63;62.66;;
58303;Laerm;44109;52.398;7.024;2024-02-21T13:45:16;52.61;40.92;71.00;;
58303;Laerm;44109;52.398;7.024;2024-02-21T13:47:46;55.22;42.59;79.56;;
58303;Laerm;44109;52.398;7.024;2024-02-21T13:50:16;57.07;41.11;80.63;;
58303;Laerm;44109;52.398;7.024;2024-02-21T13:52:45;55.63;42.35;81.05;;